sensor_id;sensor_type;location;lat;lon;timestamp;P1;durP1;ratioP1;P2;durP2;ratioP2
77168;SDS011;66281;45.114;20.730;2023-09-19T00:08:20;5.43;;;3.67;;
77168;SDS011;66281;45.114;20.730;2023-09-19T00:18:25;8.03;;;3.40;;
77168;SDS011;66281;45.114;20.730;2023-09-19T00:28:29;6.55;;;3.15;;
77168;SDS011;66281;45.114;20.730;2023-09-19T00:38:32;7.50;;;3.90;;
77168;SDS011;66281;45.114;20.730;2023-09-19T00:48:37;6.20;;;3.70;;
77168;SDS011;66281;45.114;20.730;2023-09-19T00:58:41;4.60;;;3.75;;
77168;SDS011;66281;45.114;20.730;2023-09-19T01:08:42;5.03;;;4.03;;
77168;SDS011;66281;45.114;20.730;2023-09-19T01:39:40;6.00;;;4.18;;
77168;SDS011;66281;45.114;20.730;2023-09-19T01:49:42;5.07;;;4.20;;
77168;SDS011;66281;45.114;20.730;2023-09-19T02:00:02;5.93;;;3.50;;
77168;SDS011;66281;45.114;20.730;2023-09-19T02:10:13;11.27;;;4.30;;
77168;SDS011;66281;45.114;20.730;2023-09-19T02:20:14;6.63;;;4.53;;
77168;SDS011;66281;45.114;20.730;2023-09-19T02:30:15;6.60;;;4.90;;
77168;SDS011;66281;45.114;20.730;2023-09-19T02:40:18;6.90;;;4.18;;
77168;SDS011;66281;45.114;20.730;2023-09-19T02:50:19;6.20;;;4.10;;
77168;SDS011;66281;45.114;20.730;2023-09-19T03:00:20;9.33;;;4.43;;
77168;SDS011;66281;45.114;20.730;2023-09-19T03:10:23;7.90;;;4.83;;
77168;SDS011;66281;45.114;20.730;2023-09-19T03:20:25;11.17;;;5.57;;
77168;SDS011;66281;45.114;20.730;2023-09-19T03:30:28;7.50;;;4.80;;
77168;SDS011;66281;45.114;20.730;2023-09-19T03:40:29;7.85;;;5.22;;
77168;SDS011;66281;45.114;20.730;2023-09-19T03:50:30;9.40;;;4.20;;
77168;SDS011;66281;45.114;20.730;2023-09-19T04:00:33;6.57;;;3.83;;
77168;SDS011;66281;45.114;20.730;2023-09-19T04:10:35;4.57;;;3.67;;
77168;SDS011;66281;45.114;20.730;2023-09-19T04:20:36;5.67;;;4.67;;
77168;SDS011;66281;45.114;20.730;2023-09-19T04:30:37;6.63;;;4.27;;
77168;SDS011;66281;45.114;20.730;2023-09-19T04:40:40;5.68;;;3.95;;
77168;SDS011;66281;45.114;20.730;2023-09-19T04:50:41;6.17;;;4.20;;
77168;SDS011;66281;45.114;20.730;2023-09-19T05:00:42;7.27;;;4.23;;
77168;SDS011;66281;45.114;20.730;2023-09-19T05:10:42;7.27;;;4.60;;
77168;SDS011;66281;45.114;20.730;2023-09-19T05:20:43;6.93;;;4.90;;
77168;SDS011;66281;45.114;20.730;2023-09-19T05:30:44;4.70;;;4.20;;
77168;SDS011;66281;45.114;20.730;2023-09-19T05:40:45;8.87;;;4.53;;
77168;SDS011;66281;45.114;20.730;2023-09-19T05:50:46;7.30;;;4.80;;
77168;SDS011;66281;45.114;20.730;2023-09-19T06:00:49;11.53;;;5.10;;
77168;SDS011;66281;45.114;20.730;2023-09-19T06:10:50;9.27;;;4.53;;
77168;SDS011;66281;45.114;20.730;2023-09-19T06:20:52;6.05;;;4.35;;
77168;SDS011;66281;45.114;20.730;2023-09-19T06:30:54;8.77;;;4.33;;
77168;SDS011;66281;45.114;20.730;2023-09-19T06:40:55;6.47;;;4.67;;
77168;SDS011;66281;45.114;20.730;2023-09-19T06:50:57;9.82;;;4.65;;
77168;SDS011;66281;45.114;20.730;2023-09-19T07:00:58;6.97;;;4.83;;
77168;SDS011;66281;45.114;20.730;2023-09-19T07:10:59;17.77;;;6.57;;
77168;SDS011;66281;45.114;20.730;2023-09-19T07:21:00;22.03;;;5.37;;
77168;SDS011;66281;45.114;20.730;2023-09-19T07:31:05;7.70;;;4.30;;
77168;SDS011;66281;45.114;20.730;2023-09-19T07:41:07;7.00;;;4.60;;
77168;SDS011;66281;45.114;20.730;2023-09-19T07:51:09;6.57;;;4.93;;
77168;SDS011;66281;45.114;20.730;2023-09-19T08:01:10;21.27;;;6.15;;
77168;SDS011;66281;45.114;20.730;2023-09-19T08:11:14;11.23;;;4.70;;
77168;SDS011;66281;45.114;20.730;2023-09-19T08:21:21;8.23;;;4.20;;
77168;SDS011;66281;45.114;20.730;2023-09-19T08:31:24;9.77;;;4.53;;
77168;SDS011;66281;45.114;20.730;2023-09-19T08:41:25;7.60;;;4.97;;
77168;SDS011;66281;45.114;20.730;2023-09-19T09:01:49;7.97;;;5.07;;
77168;SDS011;66281;45.114;20.730;2023-09-19T09:11:53;6.23;;;4.50;;
77168;SDS011;66281;45.114;20.730;2023-09-19T09:22:07;6.60;;;3.90;;
77168;SDS011;66281;45.114;20.730;2023-09-19T09:32:19;6.27;;;4.20;;
77168;SDS011;66281;45.114;20.730;2023-09-19T09:42:35;9.27;;;4.93;;
77168;SDS011;66281;45.114;20.730;2023-09-19T09:52:45;12.47;;;5.30;;
77168;SDS011;66281;45.114;20.730;2023-09-19T10:02:47;6.00;;;4.47;;
77168;SDS011;66281;45.114;20.730;2023-09-19T10:12:48;8.30;;;4.70;;
77168;SDS011;66281;45.114;20.730;2023-09-19T10:22:49;8.43;;;4.72;;
77168;SDS011;66281;45.114;20.730;2023-09-19T10:33:01;6.80;;;4.90;;
77168;SDS011;66281;45.114;20.730;2023-09-19T10:43:03;8.93;;;4.80;;
77168;SDS011;66281;45.114;20.730;2023-09-19T10:53:08;9.23;;;4.20;;
77168;SDS011;66281;45.114;20.730;2023-09-19T11:13:28;7.83;;;5.63;;
77168;SDS011;66281;45.114;20.730;2023-09-19T11:23:34;10.68;;;6.00;;
77168;SDS011;66281;45.114;20.730;2023-09-19T11:33:37;7.33;;;6.00;;
77168;SDS011;66281;45.114;20.730;2023-09-19T11:43:41;12.88;;;6.30;;
77168;SDS011;66281;45.114;20.730;2023-09-19T11:53:42;15.77;;;6.00;;
77168;SDS011;66281;45.114;20.730;2023-09-19T12:03:45;20.53;;;6.13;;
77168;SDS011;66281;45.114;20.730;2023-09-19T12:13:50;11.73;;;5.70;;
77168;SDS011;66281;45.114;20.730;2023-09-19T12:24:12;14.87;;;6.43;;
77168;SDS011;66281;45.114;20.730;2023-09-19T12:34:20;17.33;;;7.67;;
77168;SDS011;66281;45.114;20.730;2023-09-19T12:44:23;11.88;;;6.55;;
77168;SDS011;66281;45.114;20.730;2023-09-19T12:54:25;9.77;;;6.70;;
77168;SDS011;66281;45.114;20.730;2023-09-19T13:04:26;12.57;;;6.30;;
77168;SDS011;66281;45.114;20.730;2023-09-19T13:14:29;11.35;;;6.13;;
77168;SDS011;66281;45.114;20.730;2023-09-19T13:24:40;8.00;;;5.27;;
77168;SDS011;66281;45.114;20.730;2023-09-19T13:34:42;8.43;;;6.07;;
77168;SDS011;66281;45.114;20.730;2023-09-19T13:44:42;10.87;;;6.30;;
77168;SDS011;66281;45.114;20.730;2023-09-19T13:54:43;6.87;;;6.27;;
77168;SDS011;66281;45.114;20.730;2023-09-19T14:04:44;10.93;;;6.70;;
77168;SDS011;66281;45.114;20.730;2023-09-19T14:14:45;10.83;;;6.30;;
77168;SDS011;66281;45.114;20.730;2023-09-19T14:24:46;15.90;;;6.90;;
77168;SDS011;66281;45.114;20.730;2023-09-19T14:34:46;21.30;;;7.37;;
77168;SDS011;66281;45.114;20.730;2023-09-19T14:44:47;16.47;;;5.40;;
77168;SDS011;66281;45.114;20.730;2023-09-19T14:54:48;13.40;;;3.92;;
77168;SDS011;66281;45.114;20.730;2023-09-19T15:04:49;9.30;;;4.27;;
77168;SDS011;66281;45.114;20.730;2023-09-19T15:14:51;9.70;;;4.00;;
77168;SDS011;66281;45.114;20.730;2023-09-19T15:24:52;11.70;;;4.90;;
77168;SDS011;66281;45.114;20.730;2023-09-19T15:34:53;11.50;;;3.97;;
77168;SDS011;66281;45.114;20.730;2023-09-19T15:44:53;11.03;;;3.33;;
77168;SDS011;66281;45.114;20.730;2023-09-19T15:54:55;7.47;;;2.90;;
77168;SDS011;66281;45.114;20.730;2023-09-19T16:04:56;6.03;;;2.73;;
77168;SDS011;66281;45.114;20.730;2023-09-19T16:14:56;17.67;;;9.07;;
77168;SDS011;66281;45.114;20.730;2023-09-19T16:24:57;28.27;;;16.37;;
77168;SDS011;66281;45.114;20.730;2023-09-19T16:34:58;32.77;;;18.70;;
77168;SDS011;66281;45.114;20.730;2023-09-19T16:44:59;30.52;;;13.70;;
77168;SDS011;66281;45.114;20.730;2023-09-19T16:55:00;14.83;;;5.90;;
77168;SDS011;66281;45.114;20.730;2023-09-19T17:05:00;12.80;;;4.37;;
77168;SDS011;66281;45.114;20.730;2023-09-19T17:15:01;6.30;;;2.23;;
77168;SDS011;66281;45.114;20.730;2023-09-19T17:25:02;13.40;;;2.80;;
77168;SDS011;66281;45.114;20.730;2023-09-19T17:35:03;11.97;;;3.10;;
77168;SDS011;66281;45.114;20.730;2023-09-19T17:45:04;3.60;;;1.92;;
77168;SDS011;66281;45.114;20.730;2023-09-19T17:55:06;6.10;;;2.60;;
77168;SDS011;66281;45.114;20.730;2023-09-19T18:05:07;5.37;;;1.77;;
77168;SDS011;66281;45.114;20.730;2023-09-19T18:15:08;6.63;;;2.80;;
77168;SDS011;66281;45.114;20.730;2023-09-19T18:25:09;8.40;;;2.93;;
77168;SDS011;66281;45.114;20.730;2023-09-19T18:35:11;5.30;;;2.27;;
77168;SDS011;66281;45.114;20.730;2023-09-19T18:45:15;6.88;;;2.22;;
77168;SDS011;66281;45.114;20.730;2023-09-19T18:55:16;5.97;;;2.03;;
77168;SDS011;66281;45.114;20.730;2023-09-19T19:05:17;52.37;;;5.53;;
77168;SDS011;66281;45.114;20.730;2023-09-19T19:15:18;29.17;;;3.83;;
77168;SDS011;66281;45.114;20.730;2023-09-19T19:25:20;10.98;;;3.33;;
77168;SDS011;66281;45.114;20.730;2023-09-19T19:35:21;6.23;;;2.70;;
77168;SDS011;66281;45.114;20.730;2023-09-19T19:45:23;5.67;;;2.97;;
77168;SDS011;66281;45.114;20.730;2023-09-19T19:55:23;5.53;;;3.00;;
77168;SDS011;66281;45.114;20.730;2023-09-19T20:05:27;6.83;;;2.60;;
77168;SDS011;66281;45.114;20.730;2023-09-19T20:15:27;13.07;;;2.80;;
77168;SDS011;66281;45.114;20.730;2023-09-19T20:25:30;9.60;;;3.47;;
77168;SDS011;66281;45.114;20.730;2023-09-19T20:35:34;10.37;;;3.33;;
77168;SDS011;66281;45.114;20.730;2023-09-19T20:45:37;12.30;;;4.32;;
77168;SDS011;66281;45.114;20.730;2023-09-19T20:55:41;12.00;;;4.30;;
77168;SDS011;66281;45.114;20.730;2023-09-19T21:05:42;13.03;;;3.87;;
77168;SDS011;66281;45.114;20.730;2023-09-19T21:15:43;11.57;;;3.85;;
77168;SDS011;66281;45.114;20.730;2023-09-19T21:25:52;9.50;;;3.60;;
77168;SDS011;66281;45.114;20.730;2023-09-19T21:35:54;9.90;;;2.53;;
77168;SDS011;66281;45.114;20.730;2023-09-19T21:45:56;7.53;;;3.23;;
77168;SDS011;66281;45.114;20.730;2023-09-19T21:56:01;4.88;;;2.42;;
77168;SDS011;66281;45.114;20.730;2023-09-19T22:06:06;14.47;;;3.20;;
77168;SDS011;66281;45.114;20.730;2023-09-19T22:16:15;6.27;;;2.10;;
77168;SDS011;66281;45.114;20.730;2023-09-19T22:26:16;9.00;;;2.05;;
77168;SDS011;66281;45.114;20.730;2023-09-19T22:36:24;9.50;;;2.70;;
77168;SDS011;66281;45.114;20.730;2023-09-19T22:46:33;16.13;;;2.93;;
77168;SDS011;66281;45.114;20.730;2023-09-19T22:56:34;26.43;;;3.37;;
77168;SDS011;66281;45.114;20.730;2023-09-19T23:06:36;20.23;;;3.27;;
77168;SDS011;66281;45.114;20.730;2023-09-19T23:16:39;10.73;;;3.22;;
77168;SDS011;66281;45.114;20.730;2023-09-19T23:26:47;10.30;;;2.67;;
77168;SDS011;66281;45.114;20.730;2023-09-19T23:36:49;4.50;;;1.67;;
77168;SDS011;66281;45.114;20.730;2023-09-19T23:46:50;4.73;;;2.30;;
77168;SDS011;66281;45.114;20.730;2023-09-19T23:56:55;4.00;;;2.03;;
